Time;durP1;ratioP1;P1;durP2;ratioP2;P2;SDS_P1;SDS_P2;PMS_P1;PMS_P2;Temp;Humidity;BMP_temperature;BMP_pressure;BME280_temperature;BME280_humidity;BME280_pressure;Samples;Min_cycle;Max_cycle;Signal;HPM_P1;HPM_P2
2022/12/04 00:02:21;;;;;;;1.70;0.70;;;;;;;12.86;100.00;100200.88;7396730;19;20010;-64
2022/12/04 00:04:48;;;;;;;1.00;0.90;;;;;;;12.61;100.00;100198.63;7392529;19;20125;-64
2022/12/04 00:07:14;;;;;;;0.35;0.35;;;;;;;12.49;100.00;100202.50;7393043;19;20070;-64
2022/12/04 00:09:40;;;;;;;0.40;0.40;;;;;;;12.50;100.00;100199.22;7393543;19;20010;-64
2022/12/04 00:12:06;;;;;;;0.28;0.28;;;;;;;12.69;100.00;100194.22;7395148;19;20109;-64
2022/12/04 00:14:32;;;;;;;1.80;0.60;;;;;;;12.93;100.00;100192.06;7390040;19;20015;-65
2022/12/04 00:16:59;;;;;;;0.45;0.25;;;;;;;13.12;100.00;100187.84;7391510;19;20015;-64
2022/12/04 00:19:25;;;;;;;1.38;1.17;;;;;;;13.26;100.00;100191.84;7391075;19;20565;-64
2022/12/04 00:21:51;;;;;;;0.45;0.45;;;;;;;13.10;100.00;100187.56;7395329;19;20015;-64
2022/12/04 00:24:17;;;;;;;0.85;0.80;;;;;;;12.92;100.00;100187.75;7390587;19;20563;-64
2022/12/04 00:26:43;;;;;;;0.43;0.43;;;;;;;12.63;100.00;100188.53;7392278;19;20011;-64
2022/12/04 00:29:09;;;;;;;0.63;0.35;;;;;;;12.40;100.00;100180.22;7392289;19;20007;-64
2022/12/04 00:31:35;;;;;;;2.00;1.08;;;;;;;12.26;100.00;100178.19;7393903;19;20015;-64
2022/12/04 00:34:02;;;;;;;3.58;0.95;;;;;;;12.42;100.00;100174.94;7392080;19;20016;-64
2022/12/04 00:36:28;;;;;;;0.60;0.60;;;;;;;12.44;100.00;100172.41;7391812;19;20017;-64
2022/12/04 00:38:55;;;;;;;4.13;1.25;;;;;;;12.43;100.00;100168.09;7392389;19;20011;-64
2022/12/04 00:41:23;;;;;;;1.17;0.52;;;;;;;12.31;100.00;100169.13;7391760;19;20031;-64
2022/12/04 00:43:50;;;;;;;3.38;1.73;;;;;;;12.25;100.00;100160.66;7390397;19;20025;-64
2022/12/04 00:46:17;;;;;;;1.15;0.68;;;;;;;12.37;100.00;100167.22;7391768;19;20018;-64
2022/12/04 00:48:44;;;;;;;3.25;1.50;;;;;;;12.29;100.00;100166.81;7391734;19;20018;-64
2022/12/04 00:51:15;;;;;;;1.15;0.93;;;;;;;12.15;100.00;100154.38;7392752;19;20459;-64
2022/12/04 00:53:42;;;;;;;;;;;;;;;12.13;100.00;100165.25;7395395;19;20019;-64
2022/12/04 00:56:11;;;;;;;0.30;0.30;;;;;;;12.10;100.00;100165.44;7390812;19;19932;-64
2022/12/04 00:58:38;;;;;;;1.00;0.57;;;;;;;11.94;100.00;100151.94;7395973;19;20632;-64
2022/12/04 01:01:07;;;;;;;7.93;0.75;;;;;;;11.92;100.00;100155.22;7391239;19;20362;-64
2022/12/04 01:03:34;;;;;;;0.40;0.40;;;;;;;11.89;100.00;100150.56;7391406;19;20025;-64
2022/12/04 01:06:00;;;;;;;0.70;0.68;;;;;;;11.85;100.00;100149.22;7392086;19;20017;-64
2022/12/04 01:08:27;;;;;;;0.40;0.40;;;;;;;11.56;100.00;100149.88;7391624;19;20017;-64
2022/12/04 01:10:53;;;;;;;0.52;0.20;;;;;;;11.45;100.00;100144.06;7391413;19;20351;-64
2022/12/04 01:13:19;;;;;;;1.00;0.60;;;;;;;11.21;100.00;100152.41;7390883;19;20022;-64
2022/12/04 01:15:47;;;;;;;0.77;0.55;;;;;;;11.20;100.00;100147.28;7390799;19;20014;-64
2022/12/04 01:18:15;;;;;;;1.02;0.95;;;;;;;11.00;100.00;100141.53;7391045;19;20078;-64
2022/12/04 01:20:47;;;;;;;2.60;0.75;;;;;;;11.18;100.00;100141.41;7388883;19;20014;-65
2022/12/04 01:23:13;;;;;;;4.30;1.00;;;;;;;10.90;100.00;100137.22;7391555;19;20033;-64
2022/12/04 01:25:39;;;;;;;1.52;0.73;;;;;;;10.72;100.00;100134.50;7393306;19;20007;-64
2022/12/04 01:28:05;;;;;;;0.85;0.43;;;;;;;10.65;100.00;100133.59;7395991;19;20035;-64
2022/12/04 01:30:32;;;;;;;2.70;0.95;;;;;;;10.68;100.00;100143.00;7393954;19;20405;-64
2022/12/04 01:32:58;;;;;;;1.50;0.70;;;;;;;10.83;100.00;100137.56;7397326;19;20047;-64
2022/12/04 01:35:24;;;;;;;0.43;0.35;;;;;;;11.25;100.00;100141.84;7393563;19;20029;-64
2022/12/04 01:37:50;;;;;;;0.75;0.65;;;;;;;11.35;100.00;100136.97;7392250;19;20022;-64
2022/12/04 01:40:16;;;;;;;2.85;0.50;;;;;;;11.08;100.00;100128.78;7393676;19;20010;-64
2022/12/04 01:42:42;;;;;;;5.78;0.98;;;;;;;10.93;100.00;100136.28;7393921;19;20018;-64
2022/12/04 01:45:30;;;;;;;4.22;1.10;;;;;;;10.91;100.00;100133.19;7394324;19;20018;-64
2022/12/04 01:48:05;;;;;;;0.90;0.60;;;;;;;10.85;100.00;100132.28;7391803;19;20760;-64
2022/12/04 01:50:32;;;;;;;1.08;0.98;;;;;;;10.96;100.00;100124.94;7395125;19;20468;-64
2022/12/04 01:52:58;;;;;;;1.35;1.13;;;;;;;11.13;100.00;100131.69;7396681;19;20455;-64
2022/12/04 01:55:25;;;;;;;0.55;0.55;;;;;;;11.19;100.00;100137.38;7394553;19;20022;-64
2022/12/04 01:57:51;;;;;;;2.65;0.80;;;;;;;11.36;100.00;100132.94;7392952;19;20078;-64
2022/12/04 02:00:17;;;;;;;5.93;1.10;;;;;;;11.41;100.00;100132.31;7392346;19;20078;-64
2022/12/04 02:02:47;;;;;;;3.03;0.95;;;;;;;11.53;100.00;100139.66;7388673;19;20042;-64
2022/12/04 02:05:17;;;;;;;0.50;0.47;;;;;;;11.82;100.00;100137.00;7389124;19;20025;-64
2022/12/04 02:07:47;;;;;;;1.50;0.85;;;;;;;11.95;100.00;100143.06;7389052;19;20017;-64
2022/12/04 02:10:16;;;;;;;2.28;0.88;;;;;;;12.19;100.00;100135.41;7388696;19;20010;-64
2022/12/04 02:13:13;;;;;;;2.50;1.13;;;;;;;12.26;100.00;100134.25;7391465;19;20464;-64
2022/12/04 02:16:04;;;;;;;0.90;0.85;;;;;;;12.32;100.00;100137.19;7388877;19;20511;-64
2022/12/04 02:18:56;;;;;;;0.40;0.40;;;;;;;12.28;100.00;100137.34;7389868;19;20018;-64
2022/12/04 02:21:36;;;;;;;1.02;1.02;;;;;;;12.14;100.00;100138.91;7389841;19;20066;-64
2022/12/04 02:24:20;;;;;;;3.35;0.50;;;;;;;12.18;100.00;100133.88;7389363;19;20014;-64
2022/12/04 02:27:01;;;;;;;1.75;0.85;;;;;;;12.15;100.00;100129.25;7389486;19;20010;-64
2022/12/04 02:29:40;;;;;;;4.43;1.42;;;;;;;12.05;100.00;100130.59;7389793;19;20570;-64
2022/12/04 02:32:19;;;;;;;0.25;0.17;;;;;;;12.04;100.00;100133.88;7391673;19;20011;-64
2022/12/04 02:35:14;;;;;;;1.05;0.47;;;;;;;12.14;100.00;100127.72;7388125;19;20573;-64
2022/12/04 02:37:52;;;;;;;2.17;0.50;;;;;;;11.98;100.00;100133.75;7385340;19;20022;-64
2022/12/04 02:40:24;;;;;;;1.65;1.25;;;;;;;11.84;100.00;100131.72;7388712;19;20101;-64
2022/12/04 02:43:08;;;;;;;0.55;0.40;;;;;;;11.99;100.00;100132.53;7392628;19;20364;-64
2022/12/04 02:45:42;;;;;;;1.15;0.40;;;;;;;11.97;100.00;100129.44;7389037;19;20490;-64
2022/12/04 02:48:13;;;;;;;0.73;0.73;;;;;;;11.76;100.00;100130.53;7389101;19;20003;-64
2022/12/04 02:50:40;;;;;;;1.63;1.15;;;;;;;11.78;100.00;100128.03;7387604;19;20039;-64
2022/12/04 02:53:15;;;;;;;1.60;0.32;;;;;;;11.91;100.00;100120.16;7387062;19;20018;-64
2022/12/04 02:55:47;;;;;;;0.40;0.40;;;;;;;12.05;100.00;100130.59;7386479;19;20009;-64
2022/12/04 02:58:39;;;;;;;0.30;0.30;;;;;;;11.93;100.00;100128.81;7389565;19;20003;-64
2022/12/04 03:01:18;;;;;;;;;;;;;;;11.67;100.00;100129.84;7388354;19;20003;-64
2022/12/04 03:04:10;;;;;;;3.20;0.63;;;;;;;11.74;100.00;100119.06;7388565;19;20249;-64
2022/12/04 03:06:39;;;;;;;2.33;0.28;;;;;;;11.82;100.00;100123.06;7395370;19;20026;-64
2022/12/04 03:09:14;;;;;;;1.58;0.47;;;;;;;11.80;100.00;100125.53;7393225;19;20014;-64
2022/12/04 03:11:45;;;;;;;0.10;0.05;;;;;;;11.60;100.00;100119.78;7396913;19;20010;-64
2022/12/04 03:14:23;;;;;;;;;;;;;;;11.56;100.00;100127.56;7395051;19;20049;-64
2022/12/04 03:16:54;;;;;;;0.73;0.38;;;;;;;11.48;100.00;100125.59;7393700;19;19919;-64
2022/12/04 03:19:44;;;;;;;0.95;0.65;;;;;;;11.45;100.00;100118.97;7394460;19;20029;-64
2022/12/04 03:22:17;;;;;;;0.63;0.63;;;;;;;11.42;100.00;100122.69;7397126;19;20573;-64
2022/12/04 03:24:54;;;;;;;4.00;1.35;;;;;;;11.49;100.00;100121.56;7392168;19;20010;-64
2022/12/04 03:27:20;;;;;;;0.57;0.38;;;;;;;11.50;100.00;100118.28;7397027;19;20550;-64
2022/12/04 03:29:58;;;;;;;0.68;0.68;;;;;;;11.52;100.00;100120.63;7393952;19;20017;-64
2022/12/04 03:32:33;;;;;;;2.65;1.13;;;;;;;12.38;100.00;100110.09;7397873;19;20025;-64
2022/12/04 03:35:29;;;;;;;1.73;0.77;;;;;;;12.68;100.00;100120.00;7395099;19;20032;-64
2022/12/04 03:38:02;;;;;;;6.68;1.48;;;;;;;12.71;100.00;100103.03;7393647;19;20441;-64
2022/12/04 03:40:40;;;;;;;7.03;1.67;;;;;;;12.51;100.00;100107.78;7394841;19;20011;-64
2022/12/04 03:43:15;;;;;;;1.85;0.93;;;;;;;12.75;100.00;100109.22;7399300;19;20019;-64
2022/12/04 03:45:55;;;;;;;0.73;0.60;;;;;;;12.67;100.00;100107.28;7387533;19;20737;-64
2022/12/04 03:48:37;;;;;;;0.30;0.30;;;;;;;12.67;100.00;100112.88;7394053;19;20019;-64
2022/12/04 03:51:20;;;;;;;6.30;1.27;;;;;;;12.79;100.00;100111.81;7394288;19;20007;-64
2022/12/04 03:53:58;;;;;;;0.52;0.30;;;;;;;12.59;100.00;100114.53;7397511;19;20493;-64
2022/12/04 03:56:34;;;;;;;0.20;0.20;;;;;;;12.58;100.00;100110.22;7392786;19;20038;-64
2022/12/04 03:59:08;;;;;;;2.58;1.05;;;;;;;12.57;100.00;100108.66;7393711;19;20022;-64
2022/12/04 04:01:41;;;;;;;2.03;0.88;;;;;;;12.60;100.00;100116.06;7395497;19;20017;-64
2022/12/04 04:04:14;;;;;;;0.60;0.30;;;;;;;12.50;100.00;100109.81;7392781;19;20076;-64
2022/12/04 04:07:09;;;;;;;1.20;0.40;;;;;;;12.46;100.00;100114.06;7394575;19;20519;-63
2022/12/04 04:09:40;;;;;;;0.20;0.20;;;;;;;12.40;100.00;100110.41;7392861;19;20347;-64
2022/12/04 04:12:12;;;;;;;0.63;0.63;;;;;;;12.34;100.00;100107.53;7395998;19;20014;-64
2022/12/04 04:25:59;;;;;;;7.05;0.40;;;;;;;12.91;100.00;100105.13;7393017;19;19919;-64
2022/12/04 04:28:39;;;;;;;0.27;0.27;;;;;;;12.78;100.00;100101.88;7395343;19;20010;-64
2022/12/04 04:31:13;;;;;;;1.27;1.02;;;;;;;12.58;100.00;100101.81;7390474;19;20010;-64
2022/12/04 04:33:49;;;;;;;1.30;1.20;;;;;;;12.72;100.00;100109.41;7392645;19;20015;-64
2022/12/04 04:36:33;;;;;;;0.68;0.38;;;;;;;12.65;100.00;100104.19;7392972;19;20022;-64
2022/12/04 04:39:12;;;;;;;0.20;0.17;;;;;;;12.64;100.00;100091.50;7390676;19;20325;-64
2022/12/04 04:41:47;;;;;;;3.22;0.52;;;;;;;12.76;100.00;100096.00;7393542;19;20014;-64
2022/12/04 04:44:23;;;;;;;1.40;0.50;;;;;;;12.91;100.00;100094.72;7392135;19;20010;-64
2022/12/04 04:46:55;;;;;;;1.23;1.13;;;;;;;12.97;100.00;100094.81;7392720;19;20010;-64
2022/12/04 04:49:24;;;;;;;0.88;0.73;;;;;;;12.78;100.00;100096.28;7393357;19;20079;-64
2022/12/04 04:51:52;;;;;;;0.30;0.20;;;;;;;12.82;100.00;100099.69;7397256;19;20030;-64
2022/12/04 04:54:19;;;;;;;0.30;0.30;;;;;;;12.85;100.00;100102.25;7399244;19;20305;-64
2022/12/04 04:56:46;;;;;;;1.02;1.00;;;;;;;12.81;100.00;100101.69;7394307;19;20350;-64
2022/12/04 04:59:14;;;;;;;0.65;0.65;;;;;;;12.75;100.00;100092.47;7392760;19;20041;-64
2022/12/04 05:01:42;;;;;;;1.98;0.43;;;;;;;12.92;100.00;100089.91;7393198;19;20035;-64
2022/12/04 05:04:09;;;;;;;8.23;1.05;;;;;;;13.10;100.00;100095.28;7391587;19;20015;-64
2022/12/04 05:06:35;;;;;;;1.98;0.40;;;;;;;13.02;100.00;100091.31;7390265;19;20074;-65
2022/12/04 05:09:02;;;;;;;0.22;0.22;;;;;;;13.51;97.97;100091.25;7392041;19;20015;-65
2022/12/04 05:11:28;;;;;;;1.73;0.70;;;;;;;13.35;97.91;100093.84;7391663;19;20031;-65
2022/12/04 05:13:54;;;;;;;4.95;0.65;;;;;;;13.29;97.88;100096.56;7391343;19;20035;-66
2022/12/04 05:16:20;;;;;;;0.30;0.30;;;;;;;13.46;97.38;100089.16;7390806;19;20010;-66
2022/12/04 05:21:32;;;;;;;0.65;0.65;;;;;;;13.11;97.97;100091.22;7392072;19;20027;-67
2022/12/04 05:23:59;;;;;;;0.25;0.25;;;;;;;13.12;97.76;100098.38;7391193;19;20007;-66
2022/12/04 05:26:26;;;;;;;0.28;0.28;;;;;;;13.15;97.78;100097.38;7389615;19;20019;-66
2022/12/04 05:28:52;;;;;;;1.23;1.05;;;;;;;13.21;97.52;100089.09;7390290;19;20040;-66
2022/12/04 05:31:18;;;;;;;0.10;0.10;;;;;;;13.27;97.46;100093.50;7391778;19;20018;-66
2022/12/04 05:33:44;;;;;;;0.30;0.28;;;;;;;13.33;96.68;100091.53;7390358;19;20007;-66
2022/12/04 05:36:12;;;;;;;1.45;0.63;;;;;;;13.36;95.82;100079.34;7390078;19;20011;-66
2022/12/04 05:38:38;;;;;;;0.30;0.28;;;;;;;13.35;96.32;100089.00;7388358;19;20010;-66
2022/12/04 05:41:05;;;;;;;0.10;0.10;;;;;;;13.30;95.49;100091.72;7389083;19;20006;-66
2022/12/04 05:43:32;;;;;;;0.20;0.20;;;;;;;12.92;97.53;100081.53;7389558;19;20448;-66
2022/12/04 05:46:06;;;;;;;0.77;0.77;;;;;;;12.78;99.09;100082.31;7393155;19;20014;-66
2022/12/04 05:48:34;;;;;;;2.88;0.20;;;;;;;12.81;99.97;100084.94;7388930;19;20475;-67
2022/12/04 05:51:07;;;;;;;0.50;0.28;;;;;;;12.81;99.88;100086.94;7389863;19;20028;-67
2022/12/04 05:53:34;;;;;;;0.20;0.20;;;;;;;12.70;100.00;100087.53;7393546;19;20398;-67
2022/12/04 05:56:01;;;;;;;0.45;0.32;;;;;;;12.56;100.00;100084.78;7390109;19;20554;-67
2022/12/04 05:58:28;;;;;;;0.10;0.10;;;;;;;12.50;100.00;100079.09;7392020;19;20011;-67
2022/12/04 06:00:54;;;;;;;0.50;0.30;;;;;;;12.55;100.00;100077.63;7390131;19;20011;-67
2022/12/04 06:03:21;;;;;;;0.35;0.10;;;;;;;12.70;100.00;100070.00;7390169;19;20007;-66
2022/12/04 06:05:47;;;;;;;0.32;0.20;;;;;;;12.81;99.91;100078.56;7387958;19;20017;-67
2022/12/04 06:08:13;;;;;;;0.20;0.20;;;;;;;12.70;100.00;100073.56;7389415;19;20074;-66
2022/12/04 06:10:40;;;;;;;0.57;0.55;;;;;;;12.60;100.00;100076.97;7388643;19;20014;-67
2022/12/04 06:13:06;;;;;;;2.30;0.35;;;;;;;12.88;98.90;100069.78;7393791;19;20048;-67
2022/12/04 06:15:38;;;;;;;0.10;0.10;;;;;;;13.20;96.90;100070.75;7387953;19;20007;-66
2022/12/04 06:18:04;;;;;;;;;;;;;;;13.36;95.34;100070.22;7389321;19;20015;-67
2022/12/04 06:20:31;;;;;;;0.45;0.40;;;;;;;13.29;94.18;100073.41;7387273;19;19978;-66
2022/12/04 06:22:57;;;;;;;0.40;0.40;;;;;;;13.20;95.22;100071.53;7391626;19;20022;-67
2022/12/04 06:25:23;;;;;;;0.10;0.10;;;;;;;13.32;94.63;100069.66;7386007;19;20021;-67
2022/12/04 06:27:50;;;;;;;0.30;0.30;;;;;;;13.46;93.92;100066.78;7387276;19;20021;-67
2022/12/04 06:30:17;;;;;;;0.43;0.10;;;;;;;13.68;93.18;100057.88;7386782;19;20022;-66
2022/12/04 06:32:43;;;;;;;0.65;0.28;;;;;;;13.78;92.80;100058.47;7389414;19;20506;-67
2022/12/04 06:35:09;;;;;;;4.47;0.80;;;;;;;13.97;91.70;100070.91;7385501;19;20019;-66
2022/12/04 06:37:36;;;;;;;0.38;0.35;;;;;;;13.83;92.08;100071.78;7386492;19;20035;-67
2022/12/04 06:40:02;;;;;;;0.63;0.63;;;;;;;13.84;92.18;100071.28;7393585;19;20010;-66
2022/12/04 06:42:29;;;;;;;0.30;0.30;;;;;;;13.78;92.16;100070.44;7398251;19;20057;-66
2022/12/04 06:44:55;;;;;;;1.95;0.38;;;;;;;13.73;92.68;100076.00;7395194;19;20019;-66
2022/12/04 06:47:21;;;;;;;1.65;1.38;;;;;;;13.75;92.68;100074.25;7396300;19;20493;-66
2022/12/04 06:49:50;;;;;;;1.27;0.55;;;;;;;13.62;93.76;100074.59;7395215;19;20010;-67
2022/12/04 06:52:17;;;;;;;1.55;0.57;;;;;;;13.57;93.93;100071.75;7397856;19;20021;-66
2022/12/04 06:54:43;;;;;;;0.15;0.15;;;;;;;13.48;94.61;100075.44;7395181;19;20014;-66
2022/12/04 06:57:09;;;;;;;1.95;0.50;;;;;;;13.59;94.84;100074.81;7396017;19;20011;-66
2022/12/04 06:59:35;;;;;;;2.58;0.77;;;;;;;13.50;95.06;100077.75;7395418;19;20031;-66
2022/12/04 07:02:01;;;;;;;0.85;0.52;;;;;;;13.45;95.99;100079.22;7398321;19;20025;-66
2022/12/04 07:04:27;;;;;;;0.25;0.25;;;;;;;13.45;96.03;100078.44;7393664;19;20014;-66
2022/12/04 07:06:53;;;;;;;0.47;0.30;;;;;;;13.20;97.26;100082.72;7394775;19;20014;-67
2022/12/04 07:09:19;;;;;;;2.58;0.88;;;;;;;13.08;98.84;100081.00;7393506;19;20667;-67
2022/12/04 07:11:46;;;;;;;1.95;0.35;;;;;;;13.18;98.81;100082.44;7396874;19;20468;-67
2022/12/04 07:14:12;;;;;;;4.10;0.20;;;;;;;13.23;99.19;100084.50;7394748;19;20010;-67
2022/12/04 07:16:40;;;;;;;0.35;0.30;;;;;;;13.29;98.57;100088.19;7393183;19;20015;-67
2022/12/04 07:19:10;;;;;;;1.80;0.63;;;;;;;13.23;98.90;100081.72;7395068;19;20026;-66
2022/12/04 07:21:37;;;;;;;0.30;0.30;;;;;;;13.22;98.78;100074.59;7397024;19;20013;-67
2022/12/04 07:24:03;;;;;;;2.28;0.43;;;;;;;13.17;99.36;100082.91;7394486;19;20011;-67
2022/12/04 07:26:30;;;;;;;3.00;0.35;;;;;;;13.04;100.00;100080.41;7393775;19;20088;-67
2022/12/04 07:28:57;;;;;;;0.63;0.45;;;;;;;12.81;100.00;100095.31;7395755;19;20501;-67
2022/12/04 07:31:26;;;;;;;0.47;0.47;;;;;;;12.75;100.00;100086.09;7397103;19;20006;-68
2022/12/04 07:33:53;;;;;;;1.20;0.38;;;;;;;13.20;100.00;100091.09;7394899;19;20018;-67
2022/12/04 07:36:20;;;;;;;0.13;0.13;;;;;;;13.24;100.00;100097.25;7395327;19;20417;-67
2022/12/04 07:38:47;;;;;;;0.20;0.20;;;;;;;13.09;100.00;100092.97;7393485;19;20669;-67
2022/12/04 07:41:14;;;;;;;1.50;0.95;;;;;;;12.96;100.00;100096.06;7397383;19;20006;-67
2022/12/04 07:43:40;;;;;;;0.38;0.38;;;;;;;12.84;100.00;100094.38;7399747;19;20355;-67
2022/12/04 07:46:16;;;;;;;0.20;0.17;;;;;;;12.90;100.00;100086.84;7397339;19;20475;-67
2022/12/04 07:48:42;;;;;;;0.20;0.20;;;;;;;12.85;100.00;100087.50;7397344;19;20018;-67
2022/12/04 07:51:14;;;;;;;0.85;0.32;;;;;;;12.76;100.00;100090.41;7397843;19;20035;-67
2022/12/04 07:53:41;;;;;;;0.68;0.20;;;;;;;12.66;100.00;100083.41;7398605;19;20015;-67
2022/12/04 07:56:09;;;;;;;0.50;0.30;;;;;;;12.65;100.00;100088.22;7394750;19;20029;-67
2022/12/04 07:58:35;;;;;;;5.50;0.98;;;;;;;12.59;100.00;100089.38;7397151;19;20015;-66
2022/12/04 08:01:16;;;;;;;0.52;0.52;;;;;;;12.56;100.00;100087.56;7393830;19;20452;-67
2022/12/04 08:03:44;;;;;;;0.77;0.47;;;;;;;12.57;100.00;100087.09;7393416;19;20014;-66
2022/12/04 08:06:11;;;;;;;0.43;0.20;;;;;;;12.51;100.00;100082.66;7394068;19;20015;-66
2022/12/04 08:08:37;;;;;;;0.47;0.28;;;;;;;12.46;100.00;100081.31;7393659;19;20455;-66
2022/12/04 08:11:09;;;;;;;0.80;0.68;;;;;;;12.38;100.00;100087.75;7394076;19;20006;-66
2022/12/04 08:13:36;;;;;;;0.10;0.10;;;;;;;12.25;100.00;100093.66;7393928;19;20498;-66
2022/12/04 08:16:04;;;;;;;0.43;0.43;;;;;;;12.18;100.00;100082.84;7393116;19;20006;-66
2022/12/04 08:18:30;;;;;;;0.43;0.30;;;;;;;12.17;100.00;100086.91;7390780;19;20007;-66
2022/12/04 08:21:08;;;;;;;0.10;0.10;;;;;;;12.13;100.00;100081.50;7393993;19;20096;-66
2022/12/04 08:23:36;;;;;;;3.47;0.98;;;;;;;12.14;100.00;100082.28;7392152;19;20018;-66
2022/12/04 08:26:03;;;;;;;0.40;0.40;;;;;;;12.12;100.00;100077.19;7392924;19;20010;-66
2022/12/04 08:28:30;;;;;;;0.30;0.30;;;;;;;12.19;100.00;100085.16;7397506;19;20027;-66
2022/12/04 08:31:02;;;;;;;0.20;0.15;;;;;;;12.21;100.00;100081.91;7393297;19;20015;-66
2022/12/04 08:33:29;;;;;;;1.08;0.85;;;;;;;12.23;100.00;100087.00;7390857;19;20519;-66
2022/12/04 08:35:55;;;;;;;0.40;0.40;;;;;;;12.24;100.00;100080.16;7390673;19;20527;-66
2022/12/04 08:38:21;;;;;;;2.75;0.38;;;;;;;12.29;100.00;100082.28;7388861;19;20014;-65
2022/12/04 08:40:47;;;;;;;5.97;1.02;;;;;;;12.26;100.00;100088.84;7392514;19;20032;-64
2022/12/04 08:43:13;;;;;;;4.03;0.65;;;;;;;12.16;100.00;100085.34;7391358;19;20046;-65
2022/12/04 08:45:39;;;;;;;0.40;0.40;;;;;;;12.28;100.00;100086.34;7391976;19;20017;-65
2022/12/04 08:48:06;;;;;;;1.42;0.40;;;;;;;12.36;100.00;100093.06;7391747;19;20076;-65
2022/12/04 08:50:32;;;;;;;0.40;0.20;;;;;;;12.38;100.00;100094.13;7394316;19;20027;-66
2022/12/04 08:52:58;;;;;;;2.40;0.63;;;;;;;12.36;100.00;100084.69;7396072;19;20010;-65
2022/12/04 08:55:24;;;;;;;0.98;0.13;;;;;;;12.39;100.00;100089.31;7396172;19;20032;-65
2022/12/04 08:57:53;;;;;;;0.10;0.05;;;;;;;12.36;100.00;100099.44;7394036;19;20006;-65
2022/12/04 09:00:20;;;;;;;0.63;0.40;;;;;;;12.44;100.00;100094.22;7396840;19;20052;-65
2022/12/04 09:02:49;;;;;;;2.33;0.73;;;;;;;12.48;100.00;100100.38;7392521;19;20376;-65
2022/12/04 09:05:16;;;;;;;0.43;0.43;;;;;;;12.60;100.00;100090.94;7394015;19;20496;-65
2022/12/04 09:07:42;;;;;;;0.80;0.65;;;;;;;12.76;100.00;100090.41;7392016;19;20486;-65
2022/12/04 09:10:09;;;;;;;0.10;0.10;;;;;;;12.94;100.00;100092.97;7391503;19;20019;-65
2022/12/04 09:12:35;;;;;;;0.30;0.20;;;;;;;13.15;100.00;100091.78;7394179;19;20014;-65
2022/12/04 09:15:01;;;;;;;1.30;0.40;;;;;;;13.01;100.00;100092.59;7389005;19;20045;-65
2022/12/04 09:17:27;;;;;;;0.85;0.32;;;;;;;13.08;100.00;100099.81;7390130;19;20015;-65
2022/12/04 09:19:53;;;;;;;0.88;0.25;;;;;;;13.04;100.00;100094.38;7389614;19;20382;-65
2022/12/04 09:22:19;;;;;;;2.38;1.33;;;;;;;13.41;100.00;100108.66;7394252;19;20508;-65
2022/12/04 09:24:45;;;;;;;0.10;0.10;;;;;;;13.48;100.00;100111.03;7390909;19;20003;-65
2022/12/04 09:27:11;;;;;;;0.55;0.45;;;;;;;13.39;100.00;100111.19;7392677;19;20010;-65
2022/12/04 09:29:37;;;;;;;1.17;1.05;;;;;;;13.14;100.00;100112.63;7391495;19;20448;-65
2022/12/04 09:32:04;;;;;;;0.65;0.65;;;;;;;13.15;100.00;100111.34;7393105;19;20072;-65
2022/12/04 09:34:30;;;;;;;1.20;0.65;;;;;;;13.13;100.00;100115.91;7390309;19;20015;-65
2022/12/04 09:36:56;;;;;;;0.10;0.10;;;;;;;13.01;100.00;100109.38;7389771;19;20014;-65
2022/12/04 09:39:22;;;;;;;5.82;0.70;;;;;;;13.13;100.00;100111.09;7389246;19;20070;-65
2022/12/04 09:41:54;;;;;;;0.57;0.55;;;;;;;13.22;100.00;100118.56;7392306;19;20074;-65
2022/12/04 09:44:26;;;;;;;3.75;0.40;;;;;;;13.36;100.00;100112.91;7388543;19;20018;-65
2022/12/04 09:47:00;;;;;;;1.20;0.52;;;;;;;13.43;100.00;100120.13;7388803;19;20022;-65
2022/12/04 09:49:35;;;;;;;3.60;0.70;;;;;;;13.53;100.00;100122.31;7390896;19;20416;-65
2022/12/04 09:52:25;;;;;;;0.32;0.32;;;;;;;13.60;100.00;100116.28;7391804;19;20017;-65
2022/12/04 09:54:52;;;;;;;10.70;1.15;;;;;;;13.78;100.00;100114.47;7390853;19;20487;-65
2022/12/04 09:57:28;;;;;;;9.23;0.68;;;;;;;13.96;100.00;100114.16;7390648;19;20433;-65
2022/12/04 09:59:55;;;;;;;0.90;0.40;;;;;;;14.15;100.00;100121.00;7388784;19;20053;-65
2022/12/04 10:02:37;;;;;;;5.97;0.70;;;;;;;14.20;100.00;100125.88;7392939;19;20084;-65
2022/12/04 10:05:13;;;;;;;2.60;1.00;;;;;;;14.53;99.07;100133.88;7390348;19;20014;-65
2022/12/04 10:08:00;;;;;;;2.10;1.30;;;;;;;14.38;98.89;100128.38;7390138;19;20006;-65
2022/12/04 10:10:41;;;;;;;6.13;1.30;;;;;;;14.41;99.02;100144.19;7388447;19;20018;-63
2022/12/04 10:13:44;;;;;;;1.95;0.47;;;;;;;14.48;98.86;100143.78;7396225;19;20021;-63
2022/12/04 10:16:19;;;;;;;0.57;0.57;;;;;;;14.66;97.22;100143.41;7395591;19;20011;-65
2022/12/04 10:19:10;;;;;;;5.43;1.55;;;;;;;14.79;95.83;100145.81;7392984;19;20015;-65
2022/12/04 10:22:16;;;;;;;3.05;1.65;;;;;;;14.69;95.58;100142.41;7398004;19;20504;-65
2022/12/04 10:25:15;;;;;;;1.25;0.70;;;;;;;14.61;96.23;100140.56;7396529;19;20618;-64
2022/12/04 10:27:49;;;;;;;3.90;1.42;;;;;;;14.65;96.37;100141.88;7397986;19;20010;-65
2022/12/04 10:30:22;;;;;;;0.75;0.75;;;;;;;14.73;95.50;100142.97;7396897;19;20370;-65
2022/12/04 10:33:08;;;;;;;0.57;0.45;;;;;;;14.81;94.86;100138.44;7400095;19;20022;-64
2022/12/04 10:35:37;;;;;;;0.30;0.22;;;;;;;14.68;94.66;100140.91;7396341;19;20461;-62
2022/12/04 10:38:09;;;;;;;1.40;0.52;;;;;;;14.61;96.24;100135.75;7393572;19;20010;-63
2022/12/04 10:40:56;;;;;;;3.47;0.75;;;;;;;14.61;96.10;100126.56;7396821;19;20011;-62
2022/12/04 10:43:44;;;;;;;0.82;0.52;;;;;;;14.61;95.82;100130.13;7397235;19;20475;-65
2022/12/04 10:46:19;;;;;;;1.98;0.68;;;;;;;14.70;95.56;100127.16;7395479;19;20407;-63
2022/12/04 10:48:49;;;;;;;3.20;0.50;;;;;;;14.67;95.81;100133.75;7394807;19;20415;-62
2022/12/04 10:51:18;;;;;;;1.33;0.98;;;;;;;14.82;95.27;100134.38;7397001;19;20563;-62
2022/12/04 10:53:48;;;;;;;1.13;1.05;;;;;;;14.77;93.86;100135.09;7399585;19;20007;-62
2022/12/04 10:56:17;;;;;;;1.10;0.52;;;;;;;14.96;93.29;100136.28;7393999;19;20039;-63
2022/12/04 10:59:04;;;;;;;1.20;1.10;;;;;;;15.15;92.19;100133.84;7397231;19;20045;-62
2022/12/04 11:01:33;;;;;;;0.20;0.20;;;;;;;15.06;91.07;100137.63;7396633;19;20358;-62
2022/12/04 11:04:04;;;;;;;0.93;0.90;;;;;;;14.79;92.32;100135.34;7393266;19;20011;-62
2022/12/04 11:06:31;;;;;;;3.30;0.85;;;;;;;14.73;93.09;100137.34;7393723;19;20018;-62
2022/12/04 11:08:59;;;;;;;0.55;0.55;;;;;;;14.62;93.95;100131.66;7394611;19;20017;-62
2022/12/04 11:11:34;;;;;;;0.50;0.47;;;;;;;14.99;92.06;100137.28;7396163;19;20014;-62
2022/12/04 11:14:01;;;;;;;0.25;0.25;;;;;;;14.99;92.37;100128.88;7395185;19;20039;-62
2022/12/04 11:16:45;;;;;;;1.85;0.88;;;;;;;15.10;90.66;100131.75;7394822;19;20021;-62
2022/12/04 11:19:20;;;;;;;5.88;1.10;;;;;;;14.94;91.12;100141.59;7395278;19;20066;-62
2022/12/04 11:21:48;;;;;;;0.85;0.57;;;;;;;15.03;90.65;100132.22;7396337;19;20006;-63
2022/12/04 11:24:21;;;;;;;1.88;0.95;;;;;;;15.01;90.79;100132.72;7394150;19;20018;-62
2022/12/04 11:26:47;;;;;;;5.35;1.02;;;;;;;15.04;90.21;100128.94;7395066;19;20011;-62
2022/12/04 11:29:16;;;;;;;0.98;0.88;;;;;;;15.97;86.67;100127.13;7393929;19;20014;-62
2022/12/04 11:31:51;;;;;;;2.63;1.10;;;;;;;16.68;83.15;100120.88;7395063;19;20436;-62
2022/12/04 11:34:21;;;;;;;8.88;1.45;;;;;;;16.52;83.64;100130.06;7394534;19;20006;-62
2022/12/04 11:36:55;;;;;;;3.25;1.35;;;;;;;16.61;82.21;100115.75;7391328;19;20414;-62
2022/12/04 11:39:27;;;;;;;17.92;1.55;;;;;;;16.83;82.32;100115.00;7393902;19;20115;-62
2022/12/04 11:42:12;;;;;;;5.22;0.88;;;;;;;17.02;81.50;100115.25;7396060;19;20015;-62
2022/12/04 11:44:48;;;;;;;1.00;0.30;;;;;;;16.92;80.99;100117.56;7393889;19;20101;-62
2022/12/04 11:47:18;;;;;;;1.85;0.47;;;;;;;16.77;81.57;100110.66;7394657;19;20073;-62
2022/12/04 11:50:02;;;;;;;0.55;0.55;;;;;;;16.92;81.79;100116.78;7392972;19;20589;-62
2022/12/04 11:52:46;;;;;;;3.17;1.25;;;;;;;16.95;81.45;100105.28;7397342;19;20015;-62
2022/12/04 11:55:25;;;;;;;4.50;0.68;;;;;;;16.92;81.97;100111.16;7394438;19;20010;-62